Hauptseite
METAR-TAF:

METAR-TAF

Flughäfen :

Laupheim, Deutschland

Flugplatz Laupheim

Breite: 48-13N, Länge: 009-55E, Höhe: 538 m

Beobachtung

Neuester Wetterbericht von vor 41 Minuten, um 08:20 UTC
Wind 2 kt aus West
Temperatur 2°C
Luftfeuchtigkeit 80%
Luftdruck 1010 hPa
Sichtweite 10 km oder mehr
Leicht bewölkt in der Höhe von 11000 ft

METAR: ETHL 270820Z 27002KT 9999 FEW110 02/M01 Q1010 BLU+BLU+

Zeit: 10:01 (09:01 UTC)

Prognose

Neuester Wetterbericht von vor 42 Minuten, um 08:19 UTC
Gültige Prognose vom 27 um 09 UTC bis 27 um 18 UTC
Wind 7 kt aus Südwest
Sichtweite 10 km oder mehr
Aufgelockert bewölkt in der Höhe von 11000 ft

TAF: ETHL 270819Z 2709/2718 22007KT 9999 NSW SCT110

Wetterbeobachtungen und Prognosen von mehr als 4000 Flughäfen (METAR und TAF Bericht).

Die verfügbaren Stationen werden durch gelbe und rote Markierungen auf der Karte dargestellt.

Führen Sie die Maus auf sie, um den Namen der Station zu sehen.

Darauf klicken, um die Beobachtung von Wetterbeobachtungen und Prognosen zu sehen.

Um die Karte zu ändern : klicken Sie auf den grünen Tasten mit einem schwarzen Kreuz Zum Vergrößern, auf den grünen Button mit einem Gedankenstrich zu verkleinern, oder auf die grünen Pfeile für benachbarte Karten.


METAR-TAF: